Time;durP1;ratioP1;P1;durP2;ratioP2;P2;SDS_P1;SDS_P2;PMS_P1;PMS_P2;Temp;Humidity;BMP_temperature;BMP_pressure;BME280_temperature;BME280_humidity;BME280_pressure;Samples;Min_cycle;Max_cycle;Signal;HPM_P1;HPM_P2
2022/06/20 00:01:01;;;;;;;5.88;1.45;;;14.10;99.90;;;;;;5023605;28;37212;-76
2022/06/20 00:03:38;;;;;;;8.63;1.52;;;14.10;99.90;;;;;;5025368;28;49216;-75
2022/06/20 00:06:05;;;;;;;5.30;1.63;;;14.10;99.90;;;;;;5041432;28;40946;-75
2022/06/20 00:08:31;;;;;;;5.65;1.70;;;14.00;99.90;;;;;;5024500;28;39681;-75
2022/06/20 00:10:58;;;;;;;7.65;1.35;;;14.00;99.90;;;;;;5025664;28;38398;-75
2022/06/20 00:13:31;;;;;;;7.93;1.60;;;13.90;99.90;;;;;;5035995;28;39629;-75
2022/06/20 00:16:00;;;;;;;6.40;1.60;;;13.90;99.90;;;;;;5036085;28;39380;-75
2022/06/20 00:18:28;;;;;;;6.63;1.27;;;13.90;99.90;;;;;;5028260;28;40318;-75
2022/06/20 00:20:54;;;;;;;7.68;1.42;;;14.00;99.90;;;;;;5032887;28;37528;-76
2022/06/20 00:23:20;;;;;;;6.93;1.25;;;14.00;99.90;;;;;;5031219;28;36878;-75
2022/06/20 00:25:46;;;;;;;11.20;1.90;;;13.90;99.90;;;;;;5028879;28;38548;-76
2022/06/20 00:28:15;;;;;;;7.18;1.60;;;13.90;99.90;;;;;;5042979;28;38581;-75
2022/06/20 00:30:42;;;;;;;4.60;1.40;;;13.90;99.90;;;;;;5043579;28;36786;-75
2022/06/20 00:33:10;;;;;;;5.68;1.70;;;13.90;99.90;;;;;;5025086;28;39091;-75
2022/06/20 00:35:37;;;;;;;6.40;1.52;;;13.90;99.90;;;;;;5037100;28;40035;-74
2022/06/20 00:38:05;;;;;;;10.32;2.00;;;13.80;99.90;;;;;;5034003;28;37227;-75
2022/06/20 00:40:39;;;;;;;8.15;1.90;;;13.80;99.90;;;;;;5036987;28;37651;-75
2022/06/20 00:43:09;;;;;;;6.25;1.65;;;13.70;99.90;;;;;;5034632;28;39512;-75
2022/06/20 00:45:41;;;;;;;8.43;1.70;;;13.70;99.90;;;;;;5035368;28;39285;-75
2022/06/20 00:48:16;;;;;;;7.68;1.73;;;13.70;99.90;;;;;;5033998;28;40205;-75
2022/06/20 00:50:46;;;;;;;6.78;1.92;;;13.70;99.90;;;;;;5042591;28;37681;-75
2022/06/20 00:53:48;;;;;;;5.38;1.52;;;13.70;99.90;;;;;;5043123;28;38973;-75
2022/06/20 00:56:21;;;;;;;6.45;2.17;;;13.70;99.90;;;;;;5025790;28;39979;-74
2022/06/20 00:58:53;;;;;;;7.85;2.00;;;13.70;99.90;;;;;;5053664;28;37985;-75
2022/06/20 01:01:27;;;;;;;7.15;3.00;;;13.70;99.90;;;;;;5043207;28;37720;-75
2022/06/20 01:03:58;;;;;;;6.93;1.70;;;13.70;99.90;;;;;;5045610;28;40683;-75
2022/06/20 01:06:35;;;;;;;4.05;1.67;;;13.70;99.90;;;;;;5026129;28;39880;-75
2022/06/20 01:09:07;;;;;;;8.27;1.75;;;13.70;99.90;;;;;;5026672;28;39385;-75
2022/06/20 01:11:50;;;;;;;7.15;2.30;;;13.70;99.90;;;;;;5030431;28;38843;-75
2022/06/20 01:14:22;;;;;;;9.32;1.98;;;13.70;99.90;;;;;;5050280;28;39823;-75
2022/06/20 01:16:52;;;;;;;6.97;1.65;;;13.70;99.90;;;;;;5035054;28;39077;-75
2022/06/20 01:19:46;;;;;;;6.30;1.90;;;13.80;99.90;;;;;;5036760;28;39736;-75
2022/06/20 01:22:28;;;;;;;7.57;1.95;;;13.80;99.90;;;;;;5040169;28;38411;-75
2022/06/20 01:25:17;;;;;;;6.88;1.83;;;13.80;99.90;;;;;;5040024;28;41546;-75
2022/06/20 01:27:45;;;;;;;8.68;2.25;;;13.80;99.90;;;;;;5040597;28;49189;-75
2022/06/20 01:30:12;;;;;;;8.75;1.75;;;13.80;99.90;;;;;;5035389;28;40282;-75
2022/06/20 01:32:38;;;;;;;9.07;1.73;;;13.80;99.90;;;;;;5054031;28;37915;-75
2022/06/20 01:35:09;;;;;;;8.23;1.60;;;13.90;99.90;;;;;;5030608;28;38958;-75
2022/06/20 01:37:39;;;;;;;6.35;1.60;;;13.90;99.90;;;;;;5053846;28;39818;-75
2022/06/20 01:40:11;;;;;;;6.45;1.60;;;13.90;99.90;;;;;;5035904;28;39060;-74
2022/06/20 01:42:38;;;;;;;7.95;2.40;;;13.80;99.90;;;;;;5032664;28;37891;-75
2022/06/20 01:45:57;;;;;;;6.15;2.13;;;13.80;99.90;;;;;;5037598;28;40193;-75
2022/06/20 01:48:02;;;;;;;9.07;2.00;;;13.80;99.90;;;;;;5040044;28;38902;-74
2022/06/20 01:50:29;;;;;;;10.30;2.00;;;13.80;99.90;;;;;;5038296;28;47457;-74
2022/06/20 01:52:56;;;;;;;10.23;2.28;;;13.90;99.90;;;;;;5040736;28;37874;-74
2022/06/20 01:55:25;;;;;;;5.13;1.75;;;13.90;99.90;;;;;;5037531;28;38590;-74
2022/06/20 01:57:59;;;;;;;7.32;1.95;;;13.90;99.90;;;;;;5040165;28;38837;-76
2022/06/20 02:00:26;;;;;;;9.38;2.30;;;13.90;99.90;;;;;;5036349;28;37827;-75
2022/06/20 02:03:01;;;;;;;10.88;2.40;;;14.00;99.90;;;;;;5041772;28;35969;-76
2022/06/20 02:05:30;;;;;;;9.05;2.15;;;14.00;99.90;;;;;;5033151;28;40433;-74
2022/06/20 02:07:59;;;;;;;19.73;2.58;;;14.00;99.90;;;;;;5021934;28;38824;-74
2022/06/20 02:10:34;;;;;;;8.05;2.17;;;14.00;99.90;;;;;;5039569;28;38764;-74
2022/06/20 02:13:01;;;;;;;10.02;2.25;;;14.10;99.90;;;;;;5034846;28;38432;-74
2022/06/20 02:15:31;;;;;;;9.50;2.50;;;14.00;99.90;;;;;;5042787;28;47143;-74
2022/06/20 02:18:02;;;;;;;8.30;1.98;;;14.00;99.90;;;;;;5046044;28;39672;-74
2022/06/20 02:20:33;;;;;;;7.57;2.00;;;14.00;99.90;;;;;;5053793;28;46980;-74
2022/06/20 02:23:01;;;;;;;9.00;2.10;;;14.00;99.90;;;;;;5058049;28;37842;-74
2022/06/20 02:25:31;;;;;;;12.68;2.75;;;14.00;99.90;;;;;;5051067;28;40156;-74
2022/06/20 02:28:08;;;;;;;11.90;1.98;;;14.00;99.90;;;;;;5047513;28;40254;-75
2022/06/20 02:30:35;;;;;;;8.27;2.00;;;14.00;99.90;;;;;;5057152;28;47249;-75
2022/06/20 02:33:13;;;;;;;9.73;2.67;;;14.00;99.90;;;;;;5055142;28;37934;-74
2022/06/20 02:35:41;;;;;;;6.38;1.65;;;13.90;99.90;;;;;;5056111;28;49382;-74
2022/06/20 02:38:07;;;;;;;9.05;2.10;;;13.90;99.90;;;;;;5058766;28;40885;-75
2022/06/20 02:40:34;;;;;;;6.18;1.75;;;13.80;99.90;;;;;;5040503;28;38424;-74
2022/06/20 02:43:10;;;;;;;9.73;2.22;;;13.80;99.90;;;;;;5031453;28;37653;-75
2022/06/20 02:45:38;;;;;;;12.88;1.90;;;13.80;99.90;;;;;;5055303;28;47948;-76
2022/06/20 02:48:08;;;;;;;5.55;1.45;;;13.80;99.90;;;;;;5053373;27;40447;-75
2022/06/20 02:50:39;;;;;;;6.80;2.30;;;13.80;99.90;;;;;;5050717;28;38436;-75
2022/06/20 02:53:31;;;;;;;10.48;2.63;;;13.80;99.90;;;;;;5029939;28;37133;-76
2022/06/20 02:55:58;;;;;;;5.03;1.50;;;13.80;99.90;;;;;;5034459;28;38847;-75
2022/06/20 02:58:30;;;;;;;6.63;1.88;;;13.80;99.90;;;;;;5033626;28;38586;-75
2022/06/20 03:01:21;;;;;;;6.70;1.70;;;13.70;99.90;;;;;;5043254;28;38311;-75
2022/06/20 03:03:51;;;;;;;6.03;2.30;;;13.70;99.90;;;;;;5053400;27;49033;-75
2022/06/20 03:06:31;;;;;;;10.57;2.40;;;13.70;99.90;;;;;;5052660;27;39981;-75
2022/06/20 03:08:57;;;;;;;7.35;1.55;;;13.60;99.90;;;;;;5045797;27;39242;-76
2022/06/20 03:11:26;;;;;;;7.65;1.65;;;13.60;99.90;;;;;;5049081;27;39441;-76
2022/06/20 03:13:55;;;;;;;6.90;1.83;;;13.60;99.90;;;;;;5049472;27;38089;-75
2022/06/20 03:16:22;;;;;;;7.20;1.75;;;13.60;99.90;;;;;;5036204;28;39050;-75
2022/06/20 03:18:50;;;;;;;6.03;1.50;;;13.60;99.90;;;;;;5050478;27;38603;-75
2022/06/20 03:21:20;;;;;;;12.65;1.98;;;13.60;99.90;;;;;;5055275;27;40153;-76
2022/06/20 03:23:46;;;;;;;10.30;2.47;;;13.60;99.90;;;;;;5055266;27;37166;-75
2022/06/20 03:26:17;;;;;;;8.95;1.92;;;13.60;99.90;;;;;;5083968;27;40468;-75
2022/06/20 03:28:43;;;;;;;8.30;1.60;;;13.60;99.90;;;;;;5048255;27;38592;-75
2022/06/20 03:31:10;;;;;;;14.70;2.03;;;13.60;99.90;;;;;;5051428;27;39720;-75
2022/06/20 03:33:38;;;;;;;6.43;1.70;;;13.60;99.90;;;;;;5068763;27;36098;-75
2022/06/20 03:36:19;;;;;;;11.27;2.85;;;13.60;99.90;;;;;;5060834;27;40130;-76
2022/06/20 03:38:47;;;;;;;7.45;1.58;;;13.50;99.90;;;;;;5057012;27;39356;-75
2022/06/20 03:41:16;;;;;;;9.52;1.95;;;13.60;99.90;;;;;;5060510;27;38787;-75
2022/06/20 03:43:48;;;;;;;8.43;1.63;;;13.60;99.90;;;;;;5049871;28;39045;-75
2022/06/20 03:46:53;;;;;;;6.38;1.60;;;13.60;99.90;;;;;;5053361;27;40622;-75
2022/06/20 03:49:37;;;;;;;12.05;2.30;;;13.60;99.90;;;;;;5032559;28;40523;-75
2022/06/20 03:52:09;;;;;;;8.45;1.52;;;13.60;99.90;;;;;;5056957;27;38971;-75
2022/06/20 03:54:51;;;;;;;12.70;2.25;;;13.60;99.90;;;;;;5041215;27;37142;-76
2022/06/20 03:57:46;;;;;;;6.75;1.52;;;13.60;99.90;;;;;;5042637;27;39060;-75
2022/06/20 04:00:36;;;;;;;6.20;1.40;;;13.60;99.90;;;;;;5062196;27;40160;-75
2022/06/20 04:03:14;;;;;;;6.07;1.52;;;13.70;99.90;;;;;;5061584;27;39694;-75
2022/06/20 04:05:48;;;;;;;9.60;1.73;;;13.70;99.90;;;;;;5027458;28;36594;-75
2022/06/20 04:08:23;;;;;;;4.82;1.85;;;13.70;99.90;;;;;;5035158;27;38775;-75
2022/06/20 04:10:59;;;;;;;7.95;1.80;;;13.70;99.90;;;;;;5072184;28;37815;-75
2022/06/20 04:13:33;;;;;;;5.45;1.73;;;13.70;99.90;;;;;;5041555;28;37335;-76
2022/06/20 04:16:29;;;;;;;12.40;1.90;;;13.70;99.90;;;;;;5041118;28;35848;-75
2022/06/20 04:18:58;;;;;;;6.50;1.58;;;13.70;99.90;;;;;;5035405;28;48771;-76
2022/06/20 04:21:43;;;;;;;6.03;1.80;;;13.70;99.90;;;;;;5046209;28;37981;-75
2022/06/20 04:24:23;;;;;;;6.30;1.40;;;13.70;99.90;;;;;;5058298;27;39105;-76
2022/06/20 04:26:58;;;;;;;12.32;2.38;;;13.70;99.90;;;;;;5058651;28;37579;-76
2022/06/20 04:29:34;;;;;;;7.03;1.63;;;13.80;99.90;;;;;;5039307;28;40333;-76
2022/06/20 04:32:22;;;;;;;6.70;1.67;;;13.80;99.90;;;;;;5069300;28;38921;-76
2022/06/20 04:34:55;;;;;;;7.15;1.75;;;13.80;99.90;;;;;;5047874;28;48616;-75
2022/06/20 04:37:58;;;;;;;5.70;1.40;;;13.90;99.90;;;;;;5063348;27;38035;-75
2022/06/20 04:40:51;;;;;;;6.25;1.80;;;14.00;99.90;;;;;;5072237;27;39787;-75
2022/06/20 04:43:29;;;;;;;10.02;1.80;;;14.10;99.90;;;;;;5089328;27;39418;-75
2022/06/20 04:46:03;;;;;;;11.55;1.98;;;14.20;99.90;;;;;;5060412;28;38761;-74
2022/06/20 04:48:29;;;;;;;7.63;1.73;;;14.20;99.90;;;;;;5058937;27;48663;-74
2022/06/20 04:50:58;;;;;;;9.10;1.85;;;14.30;99.90;;;;;;5039536;28;39338;-74
2022/06/20 04:53:29;;;;;;;10.27;1.90;;;14.30;99.90;;;;;;5038614;28;39394;-74
2022/06/20 04:56:03;;;;;;;10.57;1.65;;;14.40;99.90;;;;;;5040292;28;39962;-74
2022/06/20 04:58:53;;;;;;;7.30;1.58;;;14.50;99.90;;;;;;5033711;28;49450;-74
2022/06/20 05:01:20;;;;;;;5.10;1.90;;;14.50;99.90;;;;;;5046987;27;39235;-74
2022/06/20 05:03:49;;;;;;;8.18;1.58;;;14.60;99.90;;;;;;5042445;28;40033;-74
2022/06/20 05:06:28;;;;;;;7.00;1.73;;;14.80;99.90;;;;;;5034340;28;39265;-75
2022/06/20 05:09:18;;;;;;;8.77;1.95;;;14.90;99.90;;;;;;5043600;27;36820;-75
2022/06/20 05:12:14;;;;;;;6.78;1.70;;;15.00;99.90;;;;;;5050548;27;49234;-76
2022/06/20 05:15:04;;;;;;;5.60;1.73;;;15.10;99.90;;;;;;5050596;27;48614;-75
2022/06/20 05:17:33;;;;;;;8.32;1.73;;;15.20;99.90;;;;;;5044674;28;48807;-75
2022/06/20 05:20:08;;;;;;;8.70;2.38;;;15.10;99.90;;;;;;5061870;28;39173;-75
2022/06/20 05:22:41;;;;;;;8.40;1.60;;;15.10;99.90;;;;;;5070643;28;47334;-75
2022/06/20 05:25:15;;;;;;;6.63;1.90;;;15.00;99.90;;;;;;5053273;28;37764;-76
2022/06/20 05:27:55;;;;;;;7.53;2.28;;;15.00;99.90;;;;;;5037378;27;39178;-75
2022/06/20 05:30:24;;;;;;;8.45;2.35;;;15.00;99.90;;;;;;5048861;27;37117;-76
2022/06/20 05:33:13;;;;;;;8.52;2.00;;;15.10;99.90;;;;;;5036731;28;38531;-76
2022/06/20 05:35:48;;;;;;;14.07;2.33;;;15.30;99.90;;;;;;5038951;27;48425;-76
2022/06/20 05:38:41;;;;;;;10.38;2.20;;;15.70;99.90;;;;;;5082825;28;40812;-75
2022/06/20 05:41:12;;;;;;;11.07;2.10;;;15.90;99.90;;;;;;5056276;28;36050;-75
2022/06/20 05:43:38;;;;;;;7.95;2.30;;;16.20;99.90;;;;;;5059663;28;41940;-75
2022/06/20 05:46:07;;;;;;;5.70;1.88;;;16.50;99.90;;;;;;5064735;27;38862;-78
2022/06/20 05:48:48;;;;;;;6.10;1.70;;;16.80;99.90;;;;;;5057960;27;39205;-75
2022/06/20 05:51:17;;;;;;;5.97;1.52;;;17.20;99.90;;;;;;5047442;28;38961;-76
2022/06/20 05:53:45;;;;;;;8.82;2.03;;;17.30;99.90;;;;;;5047718;27;39677;-76
2022/06/20 05:56:20;;;;;;;7.20;1.85;;;17.40;99.90;;;;;;5045907;28;39627;-76
2022/06/20 05:58:47;;;;;;;6.60;1.90;;;17.30;99.90;;;;;;5055097;27;39805;-76
2022/06/20 06:01:25;;;;;;;5.95;1.85;;;17.10;99.90;;;;;;5037751;28;37287;-75
2022/06/20 06:03:57;;;;;;;4.70;1.80;;;17.00;99.90;;;;;;5072833;28;39838;-77
2022/06/20 06:06:31;;;;;;;9.70;1.95;;;16.90;99.90;;;;;;5033630;28;39152;-77
2022/06/20 06:09:06;;;;;;;8.38;1.92;;;16.90;99.90;;;;;;5033910;28;39339;-77
2022/06/20 06:11:54;;;;;;;8.10;2.50;;;16.90;99.90;;;;;;5059850;27;48811;-77
2022/06/20 06:14:28;;;;;;;8.50;2.25;;;16.60;99.90;;;;;;5059762;27;37933;-77
2022/06/20 06:17:17;;;;;;;7.45;1.92;;;16.30;99.90;;;;;;5054399;27;39881;-77
2022/06/20 06:19:43;;;;;;;6.85;1.92;;;16.20;99.90;;;;;;5054356;27;48337;-75
2022/06/20 06:22:20;;;;;;;5.95;1.98;;;16.30;99.90;;;;;;5052739;28;36536;-77
2022/06/20 06:24:51;;;;;;;6.30;2.30;;;16.20;99.90;;;;;;5041229;28;38411;-77
2022/06/20 06:27:25;;;;;;;7.00;1.98;;;16.40;99.90;;;;;;5035236;28;37634;-78
2022/06/20 06:30:00;;;;;;;8.18;2.15;;;16.80;99.90;;;;;;5041311;28;38110;-77
2022/06/20 06:32:38;;;;;;;7.63;1.90;;;17.20;99.90;;;;;;5067215;28;35804;-78
2022/06/20 06:35:20;;;;;;;11.52;2.17;;;17.60;99.90;;;;;;5065746;28;39618;-78
2022/06/20 06:38:00;;;;;;;11.03;2.60;;;17.50;99.90;;;;;;5087660;27;40371;-78
2022/06/20 06:40:32;;;;;;;8.88;2.63;;;17.20;99.90;;;;;;5059235;28;38934;-78
2022/06/20 06:43:00;;;;;;;7.88;2.15;;;16.80;99.90;;;;;;5038573;28;38124;-77
2022/06/20 06:45:31;;;;;;;11.60;2.75;;;16.50;99.90;;;;;;5035485;28;38344;-77
2022/06/20 06:48:21;;;;;;;10.40;2.80;;;16.30;99.90;;;;;;5033158;28;39040;-77
2022/06/20 06:50:57;;;;;;;11.85;3.47;;;16.00;99.90;;;;;;5048665;28;46994;-76
2022/06/20 06:53:58;;;;;;;8.27;2.75;;;16.20;99.90;;;;;;5052464;28;38470;-76
2022/06/20 06:56:56;;;;;;;9.05;2.30;;;16.80;99.90;;;;;;5054761;28;40544;-76
2022/06/20 07:00:04;;;;;;;7.28;2.00;;;17.40;99.90;;;;;;5030898;28;39876;-76
2022/06/20 07:02:45;;;;;;;10.38;2.35;;;17.70;99.90;;;;;;5031167;27;47344;-76
2022/06/20 07:05:12;;;;;;;7.32;2.20;;;17.80;99.90;;;;;;5043654;27;39489;-76
2022/06/20 07:07:43;;;;;;;5.45;2.10;;;17.40;99.90;;;;;;5045298;28;38820;-78
2022/06/20 07:10:25;;;;;;;6.90;1.55;;;17.20;99.90;;;;;;5061485;27;38955;-78
2022/06/20 07:12:56;;;;;;;8.60;2.00;;;17.50;99.90;;;;;;5043310;28;39243;-79
2022/06/20 07:15:24;;;;;;;6.97;2.30;;;18.00;99.90;;;;;;5077543;27;36041;-78
2022/06/20 07:17:59;;;;;;;9.30;2.42;;;18.20;99.90;;;;;;5044659;27;38770;-77
2022/06/20 07:20:31;;;;;;;5.93;1.60;;;18.80;99.90;;;;;;5048281;27;38553;-76
2022/06/20 07:23:02;;;;;;;4.65;1.35;;;19.00;99.90;;;;;;5039879;28;40133;-76
2022/06/20 07:25:35;;;;;;;5.72;1.80;;;19.00;99.90;;;;;;5047278;27;48185;-77
2022/06/20 07:28:43;;;;;;;7.97;2.05;;;19.00;99.90;;;;;;5049346;27;39323;-76
2022/06/20 07:31:32;;;;;;;6.18;2.10;;;19.20;99.90;;;;;;5049389;27;46239;-77
2022/06/20 07:34:14;;;;;;;5.72;1.73;;;19.20;99.90;;;;;;5023820;28;40232;-79
2022/06/20 07:36:55;;;;;;;5.22;1.80;;;19.30;99.90;;;;;;5044797;28;48098;-78
2022/06/20 07:39:32;;;;;;;5.60;1.90;;;18.80;99.90;;;;;;5046284;27;38758;-76
2022/06/20 07:42:07;;;;;;;4.10;1.55;;;18.10;99.90;;;;;;5041406;28;40156;-76
2022/06/20 07:44:51;;;;;;;7.13;1.92;;;17.50;99.90;;;;;;5058228;27;48676;-76
2022/06/20 07:47:24;;;;;;;9.55;2.10;;;17.40;99.90;;;;;;5051222;27;36037;-76
2022/06/20 07:49:53;;;;;;;8.63;2.00;;;17.40;99.90;;;;;;5053001;28;40223;-77
2022/06/20 07:52:30;;;;;;;5.15;2.03;;;17.50;99.90;;;;;;5049560;27;39459;-78
2022/06/20 07:55:01;;;;;;;7.15;2.03;;;17.70;99.90;;;;;;5079451;28;38904;-78
2022/06/20 07:57:35;;;;;;;4.43;1.70;;;18.40;99.90;;;;;;5030253;27;47889;-77
2022/06/20 08:00:09;;;;;;;6.35;1.55;;;19.00;99.90;;;;;;5042402;28;39621;-76
2022/06/20 08:02:46;;;;;;;8.60;1.70;;;19.60;99.90;;;;;;5041282;28;47209;-77
2022/06/20 08:05:18;;;;;;;5.43;1.40;;;19.10;99.90;;;;;;5033243;28;37187;-76
2022/06/20 08:07:52;;;;;;;6.88;1.85;;;18.90;99.90;;;;;;5036000;28;37613;-76
2022/06/20 08:10:26;;;;;;;9.30;2.63;;;18.90;99.90;;;;;;5039007;28;39402;-77
2022/06/20 08:12:58;;;;;;;5.60;1.75;;;18.50;99.90;;;;;;5035132;28;40936;-78
2022/06/20 08:15:31;;;;;;;6.38;2.13;;;18.30;99.90;;;;;;5041855;28;39528;-77
2022/06/20 08:17:58;;;;;;;8.55;2.40;;;18.10;99.90;;;;;;5043751;28;37380;-76
2022/06/20 08:20:30;;;;;;;8.10;1.95;;;17.80;99.90;;;;;;5031384;28;39375;-76
2022/06/20 08:23:02;;;;;;;7.57;2.03;;;17.90;99.90;;;;;;5032204;28;38764;-76
2022/06/20 08:25:38;;;;;;;10.85;1.95;;;18.10;99.90;;;;;;5057480;27;49656;-77
2022/06/20 08:28:25;;;;;;;10.68;2.53;;;18.20;99.90;;;;;;5047033;28;36587;-77
2022/06/20 08:30:58;;;;;;;6.10;2.25;;;18.10;99.90;;;;;;5041220;28;39209;-77
2022/06/20 08:33:33;;;;;;;6.57;1.85;;;17.90;99.90;;;;;;5069695;28;39376;-77
2022/06/20 08:36:08;;;;;;;7.03;1.98;;;17.90;99.90;;;;;;5046370;28;37080;-77
2022/06/20 08:38:47;;;;;;;5.82;1.90;;;17.90;99.90;;;;;;5081743;28;47161;-76
2022/06/20 08:41:32;;;;;;;7.72;2.30;;;17.90;99.90;;;;;;5064416;27;40417;-76
2022/06/20 08:44:18;;;;;;;7.00;1.65;;;17.90;99.90;;;;;;5052285;28;39120;-76
2022/06/20 08:47:21;;;;;;;10.65;1.65;;;18.00;99.90;;;;;;5052982;28;47419;-76
2022/06/20 08:50:12;;;;;;;3.95;1.73;;;17.90;99.90;;;;;;5049411;27;48886;-77
2022/06/20 08:52:53;;;;;;;5.85;1.92;;;18.00;99.90;;;;;;5055787;28;47298;-77
2022/06/20 08:55:53;;;;;;;8.88;1.92;;;18.60;99.90;;;;;;5072698;28;37490;-76
2022/06/20 08:58:38;;;;;;;6.68;1.52;;;19.60;99.90;;;;;;5037051;28;38436;-77
2022/06/20 09:01:24;;;;;;;8.13;1.90;;;19.60;99.90;;;;;;5039812;28;38376;-75
2022/06/20 09:04:24;;;;;;;10.55;2.45;;;19.40;99.90;;;;;;5037671;28;39999;-77
2022/06/20 09:07:09;;;;;;;6.40;1.70;;;19.00;99.90;;;;;;5062075;28;48649;-76
2022/06/20 09:09:59;;;;;;;4.13;1.50;;;19.30;99.90;;;;;;5079725;28;47759;-77
2022/06/20 09:13:03;;;;;;;6.43;1.80;;;19.90;99.90;;;;;;5062920;28;38521;-77
2022/06/20 09:15:51;;;;;;;6.15;1.83;;;20.40;99.90;;;;;;5058320;28;46526;-78
2022/06/20 09:18:53;;;;;;;5.45;1.55;;;20.60;99.90;;;;;;5066351;28;38915;-78
2022/06/20 09:21:31;;;;;;;5.75;1.80;;;20.50;99.90;;;;;;5057507;28;38414;-78
2022/06/20 09:24:15;;;;;;;5.80;1.70;;;20.70;99.90;;;;;;5061667;28;36903;-77
2022/06/20 09:27:07;;;;;;;5.28;1.40;;;20.40;99.90;;;;;;5052858;28;46957;-77
2022/06/20 09:29:45;;;;;;;4.90;1.50;;;20.40;99.90;;;;;;5058516;28;46733;-77
2022/06/20 09:32:13;;;;;;;4.55;1.35;;;20.80;99.90;;;;;;5077431;28;39890;-78
2022/06/20 09:34:50;;;;;;;6.03;1.40;;;20.90;99.90;;;;;;5065092;28;38087;-77
2022/06/20 09:37:33;;;;;;;4.32;1.52;;;21.40;99.90;;;;;;5064205;28;37886;-77
2022/06/20 09:40:03;;;;;;;;;;;21.50;99.90;;;;;;5058618;28;39766;-77
2022/06/20 09:42:59;;;;;;;5.75;1.58;;;21.10;99.90;;;;;;5057068;28;47427;-76
2022/06/20 09:45:50;;;;;;;5.35;1.48;;;21.30;99.90;;;;;;5054857;28;36803;-77
2022/06/20 09:48:26;;;;;;;5.00;1.60;;;21.20;99.90;;;;;;5063350;28;39310;-77
2022/06/20 09:51:24;;;;;;;6.65;1.63;;;21.30;99.90;;;;;;5065023;28;39296;-77
2022/06/20 09:53:59;;;;;;;5.45;1.77;;;21.40;99.90;;;;;;5060846;28;47371;-77
2022/06/20 09:56:41;;;;;;;5.90;1.60;;;21.30;99.90;;;;;;5063138;28;37908;-77
2022/06/20 09:59:11;;;;;;;6.68;1.83;;;21.30;99.90;;;;;;5057305;28;39020;-78
2022/06/20 10:01:45;;;;;;;5.57;1.88;;;21.20;99.90;;;;;;5059189;28;39803;-77
2022/06/20 10:04:32;;;;;;;8.60;2.33;;;21.40;99.90;;;;;;5038738;28;40244;-77
2022/06/20 10:07:21;;;;;;;10.50;3.50;;;21.80;99.90;;;;;;5065285;27;36827;-77
2022/06/20 10:09:57;;;;;;;8.52;2.80;;;22.00;99.90;;;;;;5034125;28;46858;-77
2022/06/20 10:12:29;;;;;;;9.52;2.53;;;21.90;99.90;;;;;;5063174;27;39527;-78
2022/06/20 10:15:19;;;;;;;7.82;2.28;;;22.40;99.90;;;;;;5087054;27;39389;-78
2022/06/20 10:17:53;;;;;;;7.85;2.45;;;22.20;99.90;;;;;;5041336;28;48180;-78
2022/06/20 10:20:45;;;;;;;6.35;2.08;;;21.90;99.90;;;;;;5041285;28;40753;-78
2022/06/20 10:23:32;;;;;;;8.57;2.15;;;21.90;99.90;;;;;;5058783;27;39853;-78
2022/06/20 10:26:22;;;;;;;6.00;1.92;;;22.10;99.90;;;;;;5042189;28;38480;-77
2022/06/20 10:29:08;;;;;;;6.57;2.28;;;22.50;99.90;;;;;;5039291;28;48695;-77
2022/06/20 10:31:46;;;;;;;8.18;2.42;;;22.40;99.90;;;;;;5040893;28;47366;-77
2022/06/20 10:35:03;;;;;;;6.65;2.20;;;21.90;99.90;;;;;;5062783;27;39477;-77
2022/06/20 10:37:42;;;;;;;9.18;1.73;;;21.70;99.90;;;;;;5046573;28;47844;-78
2022/06/20 10:40:41;;;;;;;11.25;2.20;;;22.00;99.90;;;;;;5054544;27;38194;-78
2022/06/20 10:43:11;;;;;;;8.48;2.47;;;21.90;99.90;;;;;;5055241;28;38650;-77
2022/06/20 10:45:52;;;;;;;8.43;2.28;;;21.80;99.90;;;;;;5061658;27;40035;-77
2022/06/20 10:48:27;;;;;;;6.13;1.63;;;21.90;99.90;;;;;;5058828;27;38430;-77
2022/06/20 10:51:02;;;;;;;6.20;1.30;;;22.10;99.90;;;;;;5062934;27;36214;-77
2022/06/20 10:53:42;;;;;;;8.63;1.80;;;22.20;99.90;;;;;;5056551;27;47254;-77
2022/06/20 10:56:46;;;;;;;7.72;1.83;;;22.10;99.90;;;;;;5060813;28;40111;-78
2022/06/20 10:59:39;;;;;;;8.00;2.10;;;22.20;99.90;;;;;;5059599;28;39788;-78
2022/06/20 11:02:31;;;;;;;7.22;1.65;;;22.50;99.90;;;;;;5061085;27;37357;-77
2022/06/20 11:05:18;;;;;;;9.43;2.05;;;22.70;99.90;;;;;;5062085;28;38873;-78
2022/06/20 11:07:54;;;;;;;7.57;1.90;;;22.00;99.90;;;;;;5050526;27;48960;-77
2022/06/20 11:10:45;;;;;;;7.95;1.85;;;21.70;99.90;;;;;;5061864;28;38425;-77
2022/06/20 11:13:49;;;;;;;6.53;1.88;;;21.80;99.90;;;;;;5055006;27;38790;-78
2022/06/20 11:16:32;;;;;;;6.85;2.10;;;21.90;99.90;;;;;;5083581;27;39507;-78
2022/06/20 11:19:17;;;;;;;6.88;1.95;;;21.80;99.90;;;;;;5052853;28;38759;-77
2022/06/20 11:22:01;;;;;;;6.07;1.83;;;21.90;99.90;;;;;;5063768;28;48793;-77
2022/06/20 11:24:51;;;;;;;7.47;1.67;;;21.70;99.90;;;;;;5060369;28;46965;-78
2022/06/20 11:27:29;;;;;;;8.57;2.00;;;21.70;99.90;;;;;;5073418;27;39524;-78
2022/06/20 11:30:11;;;;;;;6.07;2.03;;;21.80;99.90;;;;;;5061190;28;39587;-78
2022/06/20 11:33:04;;;;;;;8.73;1.85;;;22.10;99.90;;;;;;5052733;27;48386;-79
2022/06/20 11:35:49;;;;;;;6.40;1.92;;;22.20;99.90;;;;;;5092779;27;47698;-79
2022/06/20 11:38:37;;;;;;;5.53;1.92;;;22.30;99.90;;;;;;5059579;27;41118;-78
2022/06/20 11:41:14;;;;;;;5.03;1.58;;;22.80;99.90;;;;;;5067060;27;39555;-76
2022/06/20 11:44:06;;;;;;;7.13;1.70;;;23.00;99.90;;;;;;5079171;27;38527;-77
2022/06/20 11:46:58;;;;;;;4.05;1.63;;;22.10;99.90;;;;;;5075506;27;48714;-78
2022/06/20 11:49:34;;;;;;;8.18;1.77;;;22.50;99.90;;;;;;5052615;27;38875;-77
2022/06/20 11:52:37;;;;;;;6.90;1.45;;;22.60;99.90;;;;;;5046002;28;38083;-78
2022/06/20 11:55:37;;;;;;;4.80;1.73;;;22.50;99.90;;;;;;5039921;28;48186;-78
2022/06/20 11:58:25;;;;;;;7.07;1.55;;;22.00;99.90;;;;;;5037734;28;37254;-78
2022/06/20 12:01:15;;;;;;;7.85;1.55;;;21.80;99.90;;;;;;5041078;28;40342;-77
2022/06/20 12:03:49;;;;;;;6.10;1.60;;;21.60;99.90;;;;;;5048887;27;49352;-78
2022/06/20 12:06:57;;;;;;;6.95;1.50;;;21.60;99.90;;;;;;5068348;27;38885;-78
2022/06/20 12:09:34;;;;;;;8.15;1.55;;;21.70;99.90;;;;;;5057667;27;37561;-77
2022/06/20 12:12:21;;;;;;;5.60;1.67;;;21.30;99.90;;;;;;5039420;28;38834;-78
2022/06/20 12:15:14;;;;;;;6.53;1.73;;;21.20;99.90;;;;;;5031795;28;48582;-78
2022/06/20 12:17:46;;;;;;;7.32;1.73;;;21.30;99.90;;;;;;5060695;28;48189;-77
2022/06/20 12:23:32;;;;;;;9.90;2.38;;;20.40;99.90;;;;;;5037932;28;39176;-78
2022/06/20 12:26:06;;;;;;;9.70;2.42;;;20.00;99.90;;;;;;5064039;27;38925;-78
2022/06/20 12:28:37;;;;;;;9.05;2.38;;;20.00;99.90;;;;;;5058460;28;47582;-78
2022/06/20 12:31:29;;;;;;;16.92;2.38;;;19.80;99.90;;;;;;5066191;27;38950;-78
2022/06/20 12:34:18;;;;;;;15.02;3.35;;;19.60;99.90;;;;;;5056569;27;39731;-78
2022/06/20 12:37:04;;;;;;;11.13;2.20;;;19.50;99.90;;;;;;5047533;28;47488;-77
2022/06/20 12:39:51;;;;;;;8.27;2.05;;;19.70;99.90;;;;;;5053883;28;47068;-77
2022/06/20 12:42:22;;;;;;;7.55;2.17;;;20.20;99.90;;;;;;5044618;28;38339;-78
2022/06/20 12:45:06;;;;;;;7.07;1.90;;;20.60;99.90;;;;;;5068148;28;39849;-78
2022/06/20 12:47:38;;;;;;;10.27;2.22;;;20.80;99.90;;;;;;5050059;28;47309;-78
2022/06/20 12:50:21;;;;;;;7.47;1.80;;;20.80;99.90;;;;;;5064890;27;39822;-78
2022/06/20 12:53:04;;;;;;;8.57;2.30;;;20.20;99.90;;;;;;5061483;27;37448;-78
2022/06/20 12:55:36;;;;;;;7.43;1.85;;;19.80;99.90;;;;;;5056384;28;46988;-78
2022/06/20 12:58:28;;;;;;;8.80;2.47;;;19.50;99.90;;;;;;5069773;27;39725;-79
2022/06/20 13:01:24;;;;;;;13.82;2.25;;;19.30;99.90;;;;;;5057689;27;38316;-77
2022/06/20 13:04:08;;;;;;;9.85;2.55;;;19.40;99.90;;;;;;5073079;27;47164;-78
2022/06/20 13:06:57;;;;;;;7.40;2.00;;;19.90;99.90;;;;;;5052755;28;47275;-76
2022/06/20 13:10:11;;;;;;;9.85;2.25;;;20.20;99.90;;;;;;5066600;27;39526;-79
2022/06/20 13:12:58;;;;;;;10.00;2.13;;;20.10;99.90;;;;;;5062151;28;48337;-77
2022/06/20 13:15:32;;;;;;;12.20;2.72;;;19.80;99.90;;;;;;5056896;28;38056;-77
2022/06/20 13:18:42;;;;;;;9.05;2.10;;;19.80;99.90;;;;;;5065391;28;39179;-79
2022/06/20 13:21:31;;;;;;;7.63;2.30;;;19.80;99.90;;;;;;5054105;27;47253;-78
2022/06/20 13:24:17;;;;;;;8.70;2.22;;;19.80;99.90;;;;;;5091052;28;39333;-79
2022/06/20 13:26:49;;;;;;;10.32;2.40;;;20.10;99.90;;;;;;5066726;28;47642;-78
2022/06/20 13:29:50;;;;;;;8.10;1.80;;;20.00;99.90;;;;;;5051639;27;39891;-78
2022/06/20 13:32:22;;;;;;;6.60;2.10;;;20.50;99.90;;;;;;5036724;28;37390;-78
2022/06/20 13:35:13;;;;;;;8.60;2.17;;;20.70;99.90;;;;;;5052877;28;39253;-78
2022/06/20 13:37:55;;;;;;;11.15;2.28;;;20.80;99.90;;;;;;5071591;27;47304;-78
2022/06/20 13:40:30;;;;;;;8.27;1.90;;;20.50;99.90;;;;;;5064264;28;40895;-77
2022/06/20 13:43:32;;;;;;;8.93;1.92;;;20.10;99.90;;;;;;5039361;28;39334;-78
2022/06/20 13:46:13;;;;;;;8.10;2.00;;;19.40;99.90;;;;;;5056012;27;46986;-78
2022/06/20 13:49:03;;;;;;;8.10;1.65;;;19.00;99.90;;;;;;5038207;27;47279;-78